Time;durP1;ratioP1;P1;durP2;ratioP2;P2;SDS_P1;SDS_P2;PMS_P1;PMS_P2;Temp;Humidity;BMP_temperature;BMP_pressure;BME280_temperature;BME280_humidity;BME280_pressure;Samples;Min_cycle;Max_cycle;Signal;HPM_P1;HPM_P2
2022/10/18 00:00:18;;;;;;;19.70;5.80;;;;;;;14.08;69.67;101226.36;104275;1293;22522;-80
2022/10/18 00:03:09;;;;;;;18.90;5.40;;;;;;;13.94;69.96;101225.74;104288;1299;22544;-80
2022/10/18 00:05:41;;;;;;;15.80;5.50;;;;;;;13.86;70.20;101224.56;104321;1301;25340;-80
2022/10/18 00:08:12;;;;;;;19.60;5.60;;;;;;;13.78;70.20;101221.55;104345;1299;22848;-80
2022/10/18 00:10:44;;;;;;;15.50;5.80;;;;;;;13.71;70.35;101221.98;104273;1292;22467;-79
2022/10/18 00:13:16;;;;;;;19.40;5.60;;;;;;;13.64;70.39;101219.48;104230;1293;22499;-79
2022/10/18 00:15:52;;;;;;;16.90;5.50;;;;;;;13.61;70.68;101220.75;104282;1291;26694;-79
2022/10/18 00:18:24;;;;;;;18.50;5.50;;;;;;;13.59;70.64;101216.27;104435;1293;22897;-78
2022/10/18 00:21:05;;;;;;;15.00;5.70;;;;;;;13.53;70.77;101220.33;104386;1291;22479;-79
2022/10/18 00:23:36;;;;;;;14.70;5.90;;;;;;;13.50;71.02;101223.76;104248;1291;24363;-80
2022/10/18 00:26:10;;;;;;;17.50;4.50;;;;;;;13.48;71.17;101225.40;104318;1285;24264;-80
2022/10/18 00:28:42;;;;;;;15.00;4.50;;;;;;;13.46;71.40;101226.29;104257;1292;22868;-80
2022/10/18 00:31:16;;;;;;;15.30;5.70;;;;;;;13.45;71.39;101222.33;104360;1277;24286;-80
2022/10/18 00:33:50;;;;;;;16.60;6.80;;;;;;;13.40;71.30;101226.35;104425;1292;22564;-79
2022/10/18 00:36:21;;;;;;;12.00;4.60;;;;;;;13.34;71.53;101218.25;104377;1277;23427;-79
2022/10/18 00:38:53;;;;;;;14.40;5.10;;;;;;;13.29;71.68;101216.65;104086;1303;22596;-80
2022/10/18 00:41:27;;;;;;;19.80;6.00;;;;;;;13.24;71.88;101216.11;104124;1309;22463;-80
2022/10/18 00:44:00;;;;;;;18.00;6.10;;;;;;;13.21;72.27;101216.31;104290;1309;22588;-79
2022/10/18 00:46:33;;;;;;;15.70;5.10;;;;;;;13.18;72.20;101218.28;104232;1308;22523;-79
2022/10/18 00:49:09;;;;;;;15.40;5.20;;;;;;;13.15;72.47;101217.14;104262;1304;22531;-80
2022/10/18 00:51:45;;;;;;;14.40;5.00;;;;;;;13.13;72.54;101211.89;104200;1303;22507;-79
2022/10/18 00:54:18;;;;;;;15.70;5.20;;;;;;;13.09;72.41;101210.66;104202;1309;22419;-79
2022/10/18 00:56:50;;;;;;;13.40;5.10;;;;;;;13.06;72.63;101212.48;103886;1309;25598;-80
2022/10/18 00:59:22;;;;;;;18.40;5.90;;;;;;;13.03;72.82;101211.64;104180;1309;22598;-79
2022/10/18 01:01:53;;;;;;;13.30;4.80;;;;;;;13.00;72.82;101205.27;104162;1306;24481;-79
2022/10/18 01:04:25;;;;;;;15.70;4.90;;;;;;;12.96;72.92;101204.32;104248;1301;22583;-79
2022/10/18 01:07:04;;;;;;;14.20;5.10;;;;;;;12.92;72.96;101204.52;104052;1308;22529;-79
2022/10/18 01:09:42;;;;;;;14.10;4.80;;;;;;;12.87;73.14;101206.44;103918;1308;22549;-80
2022/10/18 01:12:24;;;;;;;14.20;4.60;;;;;;;12.84;73.17;101206.83;104125;1285;22599;-79
2022/10/18 01:15:03;;;;;;;12.40;4.10;;;;;;;12.80;73.30;101204.83;104192;1284;25402;-80
2022/10/18 01:17:45;;;;;;;15.00;4.70;;;;;;;12.78;73.39;101201.20;104051;1285;22529;-79
2022/10/18 01:20:41;;;;;;;11.90;4.80;;;;;;;12.76;73.36;101201.77;104152;1309;24810;-79
2022/10/18 01:23:18;;;;;;;18.50;4.60;;;;;;;12.72;73.50;101200.74;104170;1308;22534;-79
2022/10/18 01:26:00;;;;;;;13.60;5.10;;;;;;;12.68;73.58;101199.98;104118;1309;22527;-80
2022/10/18 01:28:48;;;;;;;16.90;5.70;;;;;;;12.64;73.72;101197.22;104078;1309;25202;-80
2022/10/18 01:31:22;;;;;;;15.60;5.30;;;;;;;12.59;73.68;101190.23;104116;1309;22510;-80
2022/10/18 01:33:57;;;;;;;15.60;4.60;;;;;;;12.56;73.86;101195.90;104154;1308;22579;-80
2022/10/18 01:36:33;;;;;;;15.90;5.20;;;;;;;12.53;74.04;101192.58;104100;1306;22542;-80
2022/10/18 01:39:08;;;;;;;15.30;4.60;;;;;;;12.51;74.02;101189.00;104141;1301;22881;-80
2022/10/18 01:41:43;;;;;;;17.60;5.30;;;;;;;12.48;74.13;101188.88;104061;1304;22470;-80
2022/10/18 01:44:16;;;;;;;18.70;5.60;;;;;;;12.44;74.14;101186.61;104174;1284;22527;-80
2022/10/18 01:46:49;;;;;;;18.20;5.50;;;;;;;12.39;74.49;101179.23;104157;1309;22435;-79
2022/10/18 01:49:21;;;;;;;14.30;4.40;;;;;;;12.36;74.47;101179.29;104197;1303;22481;-80
2022/10/18 01:51:52;;;;;;;13.10;4.60;;;;;;;12.37;74.66;101178.54;104097;1309;22486;-80
2022/10/18 01:54:30;;;;;;;14.10;5.00;;;;;;;12.36;74.71;101176.27;104152;1309;22597;-80
2022/10/18 01:57:07;;;;;;;16.90;4.80;;;;;;;12.35;74.81;101181.27;104129;1309;23426;-80
2022/10/18 01:59:52;;;;;;;13.30;4.70;;;;;;;12.35;74.95;101174.77;104127;1301;22609;-80
2022/10/18 02:02:39;;;;;;;13.20;5.00;;;;;;;12.35;74.86;101172.23;104181;1304;22943;-80
2022/10/18 02:05:21;;;;;;;13.40;4.70;;;;;;;12.29;74.83;101171.67;104075;1306;22588;-80
2022/10/18 02:07:58;;;;;;;15.30;4.80;;;;;;;12.26;74.98;101168.16;104176;1284;22478;-80
2022/10/18 02:10:34;;;;;;;17.30;6.10;;;;;;;12.22;74.97;101174.54;104125;1307;22482;-80
2022/10/18 02:13:06;;;;;;;15.10;4.80;;;;;;;12.14;75.01;101178.68;104170;1307;25393;-79
2022/10/18 02:15:41;;;;;;;15.00;4.70;;;;;;;12.06;75.20;101179.67;104180;1309;22535;-80
2022/10/18 02:18:15;;;;;;;13.50;4.80;;;;;;;11.96;75.30;101177.72;104255;1308;22530;-81
2022/10/18 02:20:49;;;;;;;15.90;4.30;;;;;;;11.87;75.41;101176.56;104338;1308;24277;-80
2022/10/18 02:23:25;;;;;;;14.30;5.00;;;;;;;11.81;75.52;101183.19;104165;1303;22466;-80
2022/10/18 02:25:56;;;;;;;15.40;4.60;;;;;;;11.76;75.63;101184.89;104127;1309;22526;-78
2022/10/18 02:28:27;;;;;;;16.40;5.90;;;;;;;11.72;75.69;101182.98;104059;1301;23306;-79
2022/10/18 02:31:07;;;;;;;19.20;5.40;;;;;;;11.69;75.84;101183.25;104210;1295;22530;-79
2022/10/18 02:33:45;;;;;;;20.70;5.60;;;;;;;11.67;75.76;101178.05;103987;1309;25718;-79
2022/10/18 02:36:26;;;;;;;18.50;5.30;;;;;;;11.64;75.88;101176.91;104199;1294;24257;-80
2022/10/18 02:39:01;;;;;;;17.40;5.60;;;;;;;11.58;76.09;101178.98;104127;1277;22513;-80
2022/10/18 02:41:34;;;;;;;17.60;5.20;;;;;;;11.54;76.25;101179.55;104286;1304;25581;-80
2022/10/18 02:44:05;;;;;;;18.70;5.20;;;;;;;11.48;76.43;101181.20;104295;1309;22573;-79
2022/10/18 02:46:37;;;;;;;17.90;4.70;;;;;;;11.41;76.63;101178.41;104163;1294;22601;-80
2022/10/18 02:49:08;;;;;;;17.00;5.10;;;;;;;11.37;76.82;101172.04;104062;1309;22690;-80
2022/10/18 02:51:39;;;;;;;18.80;5.90;;;;;;;11.34;76.71;101175.21;104178;1298;22499;-80
2022/10/18 02:54:10;;;;;;;13.60;4.20;;;;;;;11.32;76.85;101180.46;104215;1309;23794;-80
2022/10/18 02:56:41;;;;;;;14.20;4.70;;;;;;;11.31;77.02;101178.02;104035;1303;22857;-80
2022/10/18 02:59:12;;;;;;;15.40;4.60;;;;;;;11.29;76.94;101178.66;104131;1293;26626;-79
2022/10/18 03:01:43;;;;;;;14.60;4.90;;;;;;;11.26;76.82;101186.46;104234;1284;24269;-80
2022/10/18 03:04:14;;;;;;;16.00;5.10;;;;;;;11.24;77.11;101188.47;104113;1306;22513;-80
2022/10/18 03:06:47;;;;;;;16.90;5.70;;;;;;;11.20;77.06;101186.25;104243;1309;22636;-81
2022/10/18 03:09:18;;;;;;;14.80;4.40;;;;;;;11.15;77.31;101184.06;104254;1301;22477;-79
2022/10/18 03:11:49;;;;;;;17.20;4.80;;;;;;;11.09;77.60;101186.27;104181;1309;23036;-80
2022/10/18 03:14:21;;;;;;;18.30;4.40;;;;;;;11.03;77.64;101194.44;104135;1309;22483;-80
2022/10/18 03:16:51;;;;;;;15.40;4.50;;;;;;;10.99;77.91;101200.19;104171;1285;22546;-80
2022/10/18 03:19:22;;;;;;;17.20;5.10;;;;;;;10.95;78.00;101196.82;104105;1309;22470;-79
2022/10/18 03:21:54;;;;;;;18.00;5.20;;;;;;;10.92;78.03;101199.51;104149;1309;24258;-79
2022/10/18 03:24:24;;;;;;;18.80;5.20;;;;;;;10.86;78.20;101204.77;104093;1306;25265;-79
2022/10/18 03:26:55;;;;;;;16.50;5.40;;;;;;;10.85;78.14;101203.54;104067;1309;26693;-79
2022/10/18 03:29:27;;;;;;;14.80;4.90;;;;;;;10.80;78.33;101202.21;104207;1304;23897;-80
2022/10/18 03:31:58;;;;;;;13.70;5.20;;;;;;;10.74;78.47;101202.67;104155;1309;22604;-80
2022/10/18 03:34:29;;;;;;;16.80;5.30;;;;;;;10.71;78.74;101205.52;104254;1309;22495;-80
2022/10/18 03:37:00;;;;;;;16.10;5.00;;;;;;;10.67;78.60;101206.30;104113;1303;22489;-79
2022/10/18 03:39:31;;;;;;;16.70;5.00;;;;;;;10.62;78.66;101203.04;103805;1293;22525;-79
2022/10/18 03:42:02;;;;;;;15.40;4.20;;;;;;;10.60;78.55;101213.27;104161;1292;22504;-81
2022/10/18 03:44:33;;;;;;;15.30;4.10;;;;;;;10.57;78.69;101217.43;104205;1309;22495;-80
2022/10/18 03:47:04;;;;;;;12.50;4.10;;;;;;;10.53;78.84;101215.18;104125;1294;24264;-80
2022/10/18 03:49:36;;;;;;;17.50;4.60;;;;;;;10.51;78.85;101215.58;104139;1285;23233;-80
2022/10/18 03:52:07;;;;;;;14.10;4.10;;;;;;;10.48;78.89;101216.57;104134;1277;22482;-81
2022/10/18 03:54:38;;;;;;;17.60;5.30;;;;;;;10.44;79.06;101213.69;104065;1309;22513;-77
2022/10/18 03:57:09;;;;;;;18.60;5.80;;;;;;;10.43;79.08;101217.40;103631;1277;26047;-77
2022/10/18 03:59:40;;;;;;;16.00;4.70;;;;;;;10.41;79.22;101216.36;103678;1296;24876;-77
2022/10/18 04:02:11;;;;;;;13.60;4.80;;;;;;;10.38;79.07;101220.30;103563;1301;22496;-77
2022/10/18 04:04:42;;;;;;;14.00;4.60;;;;;;;10.34;79.27;101221.25;103739;1294;22664;-77
2022/10/18 04:07:13;;;;;;;15.50;5.00;;;;;;;10.31;79.55;101225.81;103592;1309;25216;-77
2022/10/18 04:09:44;;;;;;;17.30;5.20;;;;;;;10.29;79.38;101223.50;103527;1309;24373;-76
2022/10/18 04:12:15;;;;;;;20.90;5.80;;;;;;;10.26;79.49;101222.83;103523;1289;22536;-76
2022/10/18 04:14:46;;;;;;;17.00;4.30;;;;;;;10.21;79.61;101222.29;103546;1290;22558;-76
2022/10/18 04:17:17;;;;;;;17.70;5.20;;;;;;;10.16;79.60;101223.39;103708;1293;22451;-78
2022/10/18 04:19:49;;;;;;;15.50;4.70;;;;;;;10.15;79.85;101226.18;103545;1279;26004;-76
2022/10/18 04:22:20;;;;;;;18.30;5.40;;;;;;;10.12;80.03;101226.27;103664;1287;25368;-78
2022/10/18 04:24:52;;;;;;;16.10;4.80;;;;;;;10.08;79.93;101227.48;103895;1285;22478;-77
2022/10/18 04:27:23;;;;;;;17.60;5.20;;;;;;;10.08;79.99;101223.48;103882;1309;24201;-78
2022/10/18 04:29:54;;;;;;;15.80;5.50;;;;;;;10.07;80.03;101220.98;104019;1290;24260;-79
2022/10/18 04:32:28;;;;;;;16.10;5.30;;;;;;;10.05;80.21;101223.67;104092;1296;25393;-79
2022/10/18 04:34:59;;;;;;;16.00;4.90;;;;;;;10.02;80.04;101229.04;104405;1307;24031;-78
2022/10/18 04:37:31;;;;;;;20.50;5.40;;;;;;;9.99;80.24;101225.33;104687;1291;23279;-79
2022/10/18 04:40:02;;;;;;;17.30;4.50;;;;;;;9.96;80.49;101224.09;104423;1309;22499;-77
2022/10/18 04:42:33;;;;;;;22.90;6.20;;;;;;;9.92;80.44;101227.64;103901;1277;22467;-77
2022/10/18 04:45:07;;;;;;;22.40;4.90;;;;;;;9.88;80.55;101222.44;103999;1304;24400;-77
2022/10/18 04:47:38;;;;;;;13.00;5.50;;;;;;;9.87;80.69;101220.96;104125;1285;24313;-77
2022/10/18 04:50:10;;;;;;;13.80;4.70;;;;;;;9.88;80.62;101220.30;103992;1308;22732;-77
2022/10/18 04:52:41;;;;;;;17.50;5.10;;;;;;;9.86;80.56;101223.96;103693;1306;22554;-77
2022/10/18 04:55:13;;;;;;;15.70;4.50;;;;;;;9.84;80.61;101224.98;103808;1300;22789;-78
2022/10/18 04:57:44;;;;;;;14.70;4.80;;;;;;;9.80;80.70;101223.70;103708;1309;22549;-76
2022/10/18 05:00:16;;;;;;;13.40;5.30;;;;;;;9.78;80.81;101215.84;103642;1301;22631;-77
2022/10/18 05:02:47;;;;;;;15.20;5.70;;;;;;;9.77;80.90;101213.02;103986;1290;22527;-78
2022/10/18 05:05:18;;;;;;;19.50;6.60;;;;;;;9.75;81.02;101214.35;103882;1294;24214;-77
2022/10/18 05:07:49;;;;;;;20.60;6.80;;;;;;;9.75;81.17;101211.18;103904;1301;22485;-77
2022/10/18 05:10:20;;;;;;;17.90;5.60;;;;;;;9.74;81.37;101216.53;103887;1301;24295;-79
2022/10/18 05:12:51;;;;;;;18.40;6.00;;;;;;;9.73;81.45;101220.24;103923;1278;24275;-78
2022/10/18 05:15:22;;;;;;;19.50;5.60;;;;;;;9.72;81.51;101218.86;103936;1309;22520;-77
2022/10/18 05:17:53;;;;;;;18.30;7.00;;;;;;;9.71;81.67;101217.92;104060;1290;24413;-78
2022/10/18 05:20:24;;;;;;;16.90;5.70;;;;;;;9.70;81.78;101214.20;104022;1306;24027;-79
2022/10/18 05:22:57;;;;;;;21.90;6.90;;;;;;;9.69;81.70;101213.60;103929;1290;22506;-75
2022/10/18 05:25:28;;;;;;;19.00;6.50;;;;;;;9.67;81.83;101214.17;104064;1307;22586;-76
2022/10/18 05:27:59;;;;;;;19.20;6.00;;;;;;;9.66;82.09;101218.75;103928;1294;25392;-77
2022/10/18 05:30:31;;;;;;;17.10;6.30;;;;;;;9.64;81.94;101214.64;104237;1291;25390;-79
2022/10/18 05:33:02;;;;;;;24.30;6.50;;;;;;;9.63;82.02;101219.63;104309;1305;22506;-79
2022/10/18 05:35:34;;;;;;;18.20;5.70;;;;;;;9.62;82.12;101220.54;104396;1309;23313;-79
2022/10/18 05:38:06;;;;;;;20.80;7.00;;;;;;;9.62;82.17;101220.44;104339;1309;22497;-79
2022/10/18 05:40:41;;;;;;;16.30;6.10;;;;;;;9.63;82.13;101222.42;104329;1283;22463;-79
2022/10/18 05:43:13;;;;;;;19.00;6.50;;;;;;;9.62;82.14;101216.23;104211;1294;22713;-78
2022/10/18 05:45:54;;;;;;;21.30;7.30;;;;;;;9.63;82.29;101217.31;103976;1285;23172;-78
2022/10/18 05:48:28;;;;;;;22.80;8.10;;;;;;;9.63;82.50;101216.60;104073;1283;24270;-79
2022/10/18 05:51:01;;;;;;;24.90;6.60;;;;;;;9.63;82.73;101219.53;104258;1287;22682;-79
2022/10/18 05:53:35;;;;;;;25.60;7.70;;;;;;;9.64;82.83;101217.36;103992;1291;25935;-79
2022/10/18 05:56:10;;;;;;;19.90;7.70;;;;;;;9.65;82.96;101218.61;103965;1290;22741;-78
2022/10/18 05:58:42;;;;;;;24.10;6.90;;;;;;;9.66;83.02;101217.45;104181;1285;22473;-77
2022/10/18 06:01:14;;;;;;;25.20;8.30;;;;;;;9.67;83.11;101217.09;103697;1287;24294;-76
2022/10/18 06:03:46;;;;;;;23.70;6.70;;;;;;;9.69;83.31;101219.58;103551;1309;26546;-76
2022/10/18 06:06:17;;;;;;;21.60;6.70;;;;;;;9.71;83.55;101222.23;103758;1309;22472;-76
2022/10/18 06:08:58;;;;;;;24.90;7.30;;;;;;;9.73;83.65;101218.66;103662;1287;22470;-77
2022/10/18 06:11:31;;;;;;;26.40;8.90;;;;;;;9.76;84.00;101218.38;104022;1293;22960;-78
2022/10/18 06:14:03;;;;;;;22.50;8.30;;;;;;;9.81;84.00;101219.52;103986;1303;22841;-79
2022/10/18 06:16:35;;;;;;;24.80;7.70;;;;;;;9.86;84.17;101222.60;103624;1284;23923;-78
2022/10/18 06:19:08;;;;;;;23.30;9.60;;;;;;;9.90;84.30;101219.10;103626;1281;22532;-78
2022/10/18 06:21:41;;;;;;;28.50;8.00;;;;;;;9.97;84.54;101220.55;103679;1290;22574;-77
2022/10/18 06:24:13;;;;;;;20.70;8.30;;;;;;;10.02;84.71;101230.24;103662;1305;22469;-77
2022/10/18 06:26:51;;;;;;;23.00;8.20;;;;;;;10.08;85.02;101231.15;103648;1309;25297;-78
2022/10/18 06:29:23;;;;;;;29.50;8.60;;;;;;;10.16;85.02;101236.57;103822;1301;25228;-78
2022/10/18 06:31:55;;;;;;;23.90;7.70;;;;;;;10.23;85.13;101240.29;103569;1285;25281;-77
2022/10/18 06:34:26;;;;;;;24.10;7.90;;;;;;;10.30;85.26;101237.24;103505;1294;25404;-78
2022/10/18 06:36:58;;;;;;;24.00;8.40;;;;;;;10.38;85.35;101239.27;103511;1290;24378;-78
2022/10/18 06:39:31;;;;;;;26.10;7.90;;;;;;;10.46;85.32;101237.95;103520;1308;22476;-78
2022/10/18 06:42:04;;;;;;;27.60;8.80;;;;;;;10.52;85.53;101239.21;103646;1309;24248;-78
2022/10/18 06:44:36;;;;;;;26.30;8.80;;;;;;;10.60;85.70;101237.89;103712;1307;23245;-78
2022/10/18 06:47:10;;;;;;;28.60;9.90;;;;;;;10.67;85.69;101234.16;103579;1293;23572;-77
2022/10/18 06:49:41;;;;;;;27.20;9.10;;;;;;;10.74;85.89;101232.21;103460;1309;22559;-78
2022/10/18 06:52:13;;;;;;;25.10;10.00;;;;;;;10.81;85.93;101234.43;103315;1307;239548;-77
2022/10/18 06:54:45;;;;;;;31.90;10.90;;;;;;;10.87;85.95;101236.40;103570;1309;22571;-77
2022/10/18 06:57:17;;;;;;;25.20;10.90;;;;;;;10.94;86.24;101232.77;103531;1306;25282;-77
2022/10/18 06:59:50;;;;;;;26.40;11.00;;;;;;;11.02;86.26;101229.77;103538;1309;23315;-78
2022/10/18 07:02:25;;;;;;;30.70;11.20;;;;;;;11.11;86.45;101231.48;103534;1309;24317;-78
2022/10/18 07:04:57;;;;;;;26.00;9.60;;;;;;;11.18;86.56;101230.61;103544;1310;24279;-78
2022/10/18 07:07:30;;;;;;;28.10;9.70;;;;;;;11.25;86.79;101233.39;103553;1306;24262;-77
2022/10/18 07:10:01;;;;;;;26.80;9.40;;;;;;;11.33;87.08;101233.69;103456;1308;22614;-78
2022/10/18 07:12:33;;;;;;;27.80;10.30;;;;;;;11.43;87.17;101233.58;103426;1289;24230;-78
2022/10/18 07:15:04;;;;;;;24.10;9.50;;;;;;;11.51;87.51;101230.27;103445;1299;22550;-79
2022/10/18 07:17:35;;;;;;;27.80;8.70;;;;;;;11.60;87.60;101234.06;103474;1309;22528;-78
2022/10/18 07:20:08;;;;;;;34.80;10.40;;;;;;;11.69;87.82;101229.30;103510;1284;24243;-78
2022/10/18 07:22:39;;;;;;;25.80;10.70;;;;;;;11.78;87.70;101229.25;103453;1309;22542;-78
2022/10/18 07:25:11;;;;;;;25.00;9.80;;;;;;;11.87;87.75;101227.18;103507;1301;23407;-78
2022/10/18 07:27:43;;;;;;;27.60;9.20;;;;;;;11.97;88.06;101231.02;103540;1309;24387;-77
2022/10/18 07:30:15;;;;;;;28.90;9.10;;;;;;;12.08;88.10;101235.38;103453;1309;24840;-77
2022/10/18 07:32:46;;;;;;;29.80;11.30;;;;;;;12.21;87.97;101234.19;103494;1309;22492;-78
2022/10/18 07:35:18;;;;;;;21.30;8.10;;;;;;;12.33;87.94;101233.77;103436;1284;22516;-78
2022/10/18 07:37:49;;;;;;;20.60;7.90;;;;;;;12.45;87.63;101244.65;103540;1309;22479;-78
2022/10/18 07:40:20;;;;;;;23.70;8.30;;;;;;;12.57;87.56;101248.09;103503;1301;22596;-77
2022/10/18 07:42:51;;;;;;;22.00;8.60;;;;;;;12.68;87.30;101246.45;103482;1313;22554;-78
2022/10/18 07:45:22;;;;;;;19.70;8.40;;;;;;;12.80;87.21;101247.52;103453;1309;22525;-77
2022/10/18 07:47:57;;;;;;;18.50;7.80;;;;;;;12.92;86.98;101250.41;103507;1300;22503;-77
2022/10/18 07:50:29;;;;;;;20.70;6.70;;;;;;;13.06;86.70;101247.53;103625;1309;22564;-77
2022/10/18 07:53:00;;;;;;;17.70;7.50;;;;;;;13.19;86.28;101248.13;103642;1304;25336;-78
2022/10/18 07:55:31;;;;;;;22.40;7.80;;;;;;;13.31;86.06;101250.98;103551;1287;25388;-79
2022/10/18 07:58:03;;;;;;;19.00;8.00;;;;;;;13.43;85.82;101246.40;103487;1309;22552;-77
2022/10/18 08:00:34;;;;;;;21.40;8.30;;;;;;;13.56;85.61;101247.15;103525;1309;25688;-78
2022/10/18 08:03:05;;;;;;;25.70;8.00;;;;;;;13.68;85.19;101244.99;103534;1299;23301;-80
2022/10/18 08:05:37;;;;;;;21.30;7.20;;;;;;;13.80;85.29;101244.55;103490;1283;25352;-78
2022/10/18 08:08:08;;;;;;;21.60;7.50;;;;;;;13.91;84.93;101243.30;103512;1304;25941;-79
2022/10/18 08:10:39;;;;;;;21.90;7.50;;;;;;;14.01;84.82;101245.66;103472;1291;25308;-78
2022/10/18 08:13:10;;;;;;;22.30;7.40;;;;;;;14.12;84.66;101244.52;103464;1291;22598;-78
2022/10/18 08:15:41;;;;;;;16.80;6.90;;;;;;;14.24;84.39;101230.59;103534;1290;23884;-78
2022/10/18 08:18:13;;;;;;;23.60;7.80;;;;;;;14.34;84.27;101228.64;103703;1309;24838;-79
2022/10/18 08:20:48;;;;;;;29.40;8.70;;;;;;;14.44;84.23;101223.82;103496;1306;22536;-77
2022/10/18 08:23:19;;;;;;;19.50;7.50;;;;;;;14.55;84.15;101217.48;103536;1306;25592;-78
2022/10/18 08:25:50;;;;;;;20.60;7.60;;;;;;;14.64;83.96;101217.30;103543;1313;23220;-78
2022/10/18 08:28:21;;;;;;;21.20;7.80;;;;;;;14.74;83.96;101215.89;103532;1290;23217;-78
2022/10/18 08:30:52;;;;;;;20.60;8.40;;;;;;;14.84;83.52;101210.45;103555;1309;26621;-79
2022/10/18 08:33:23;;;;;;;18.10;7.70;;;;;;;14.92;83.21;101207.00;103528;1308;24511;-79
2022/10/18 08:35:59;;;;;;;18.30;6.70;;;;;;;15.03;82.84;101203.34;103543;1306;22599;-79
2022/10/18 08:38:32;;;;;;;14.40;6.10;;;;;;;15.13;82.62;101203.17;103652;1313;23953;-79
2022/10/18 08:41:16;;;;;;;16.90;6.50;;;;;;;15.22;82.35;101196.55;103559;1304;25305;-77
2022/10/18 08:43:56;;;;;;;18.00;6.80;;;;;;;15.34;82.15;101196.05;91808;1297;1003828;-79
2022/10/18 08:46:29;;;;;;;18.90;6.70;;;;;;;15.45;82.06;101191.23;51741;1301;1015851;-79
2022/10/18 08:49:02;;;;;;;17.00;7.00;;;;;;;15.56;81.74;101186.22;51599;1310;1016325;-79
2022/10/18 08:51:39;;;;;;;20.40;7.40;;;;;;;15.67;81.65;101180.73;51691;1308;1016204;-79
2022/10/18 08:54:15;;;;;;;20.40;7.00;;;;;;;15.78;81.24;101180.53;51664;1311;1015747;-79
2022/10/18 08:56:54;;;;;;;24.80;7.50;;;;;;;15.89;81.11;101183.73;51796;1309;1016069;-79
2022/10/18 08:59:26;;;;;;;16.30;7.10;;;;;;;15.99;80.95;101179.82;51650;1310;1016587;-79
2022/10/18 09:02:05;;;;;;;17.40;7.30;;;;;;;16.10;80.81;101180.86;51671;1310;1016691;-79
2022/10/18 09:04:47;;;;;;;18.90;6.90;;;;;;;16.21;80.42;101176.95;51791;1310;1017225;-79
2022/10/18 09:07:38;;;;;;;20.10;7.10;;;;;;;16.33;80.20;101175.68;52047;1297;1016216;-79
2022/10/18 09:10:21;;;;;;;18.30;6.90;;;;;;;16.45;80.06;101181.45;51664;1309;1016276;-79
2022/10/18 09:13:08;;;;;;;16.50;6.60;;;;;;;16.55;79.56;101176.70;51810;1293;1016543;-79
2022/10/18 09:15:48;;;;;;;17.10;6.40;;;;;;;16.67;79.23;101171.64;51570;1309;1016087;-79
2022/10/18 09:18:41;;;;;;;19.30;6.50;;;;;;;16.77;78.94;101165.63;51619;1297;1016130;-79
2022/10/18 09:21:21;;;;;;;15.80;5.40;;;;;;;16.92;78.79;101166.99;51583;1309;1018755;-79
2022/10/18 09:24:04;;;;;;;17.70;6.60;;;;;;;17.04;78.42;101160.15;51686;1308;1015882;-79
2022/10/18 09:26:43;;;;;;;16.30;6.30;;;;;;;17.12;78.06;101161.90;51702;1306;1016682;-79
2022/10/18 09:29:33;;;;;;;17.00;5.90;;;;;;;17.23;77.77;101157.10;51627;1309;1016313;-80
2022/10/18 09:32:21;;;;;;;19.50;6.70;;;;;;;17.37;77.71;101149.86;51707;1310;1016243;-79
2022/10/18 09:34:57;;;;;;;17.30;6.00;;;;;;;17.50;77.48;101146.91;51601;1301;1016518;-79
2022/10/18 09:37:32;;;;;;;16.40;6.30;;;;;;;17.62;77.31;101145.05;51621;1309;1016649;-79
2022/10/18 09:40:15;;;;;;;16.60;6.80;;;;;;;17.70;77.18;101136.80;51778;1309;1016062;-80
2022/10/18 09:42:55;;;;;;;17.90;6.20;;;;;;;17.81;76.82;101124.47;51401;1309;1016620;-79
2022/10/18 09:45:31;;;;;;;19.20;6.00;;;;;;;17.89;76.35;101122.30;51597;1286;1016949;-79
2022/10/18 09:48:14;;;;;;;15.40;5.60;;;;;;;17.96;76.69;101116.26;51618;1309;1016102;-80
2022/10/18 09:50:49;;;;;;;16.30;6.00;;;;;;;18.05;76.56;101108.92;51811;1285;1016100;-79
2022/10/18 09:53:26;;;;;;;17.30;5.80;;;;;;;18.10;76.63;101106.79;52021;1309;1016259;-80
2022/10/18 09:56:05;;;;;;;20.80;7.70;;;;;;;18.17;76.29;101106.43;51537;1304;1016451;-79
2022/10/18 09:58:45;;;;;;;15.50;6.80;;;;;;;18.25;76.02;101100.90;51554;1309;1015959;-79
2022/10/18 10:01:26;;;;;;;18.60;6.70;;;;;;;18.33;75.84;101097.52;51686;1301;1016497;-79
2022/10/18 10:04:00;;;;;;;17.60;6.80;;;;;;;18.42;75.61;101093.23;51608;1309;1015766;-79
2022/10/18 10:06:33;;;;;;;18.20;7.40;;;;;;;18.49;75.15;101091.29;51645;1299;1016463;-79
2022/10/18 10:09:15;;;;;;;15.40;6.70;;;;;;;18.53;74.38;101091.50;51819;1294;1016222;-80
2022/10/18 10:11:49;;;;;;;18.60;7.20;;;;;;;18.55;74.35;101089.13;51724;1309;1015749;-79
2022/10/18 10:14:24;;;;;;;16.30;5.90;;;;;;;18.62;74.27;101087.38;51828;1309;1015818;-80
2022/10/18 10:16:58;;;;;;;18.60;5.40;;;;;;;18.71;74.51;101084.13;51688;1309;1016113;-80
2022/10/18 10:19:35;;;;;;;13.30;5.20;;;;;;;18.84;74.05;101080.05;51618;1309;1016096;-80
2022/10/18 10:22:10;;;;;;;16.40;5.50;;;;;;;18.96;74.00;101071.45;51712;1306;1016122;-80
2022/10/18 10:24:49;;;;;;;19.50;5.40;;;;;;;19.08;73.88;101061.23;51781;1309;1016365;-80
2022/10/18 10:27:30;;;;;;;21.20;4.90;;;;;;;19.21;73.19;101057.90;51739;1309;1016078;-80
2022/10/18 10:30:04;;;;;;;19.10;5.70;;;;;;;19.34;73.02;101055.56;51732;1309;1016279;-80
2022/10/18 10:32:49;;;;;;;15.70;5.30;;;;;;;19.44;72.51;101041.67;51816;1309;1016215;-80
2022/10/18 10:35:30;;;;;;;16.00;4.90;;;;;;;19.58;72.50;101041.40;51739;1308;1016154;-79
2022/10/18 10:38:02;;;;;;;13.80;5.60;;;;;;;19.70;72.33;101036.95;51668;1309;1015988;-80
2022/10/18 10:40:44;;;;;;;16.00;5.80;;;;;;;19.78;72.01;101033.92;51697;1310;1016295;-80
2022/10/18 10:43:22;;;;;;;15.40;4.80;;;;;;;19.85;71.85;101031.26;51658;1309;1017857;-80
2022/10/18 10:46:03;;;;;;;16.10;5.00;;;;;;;19.91;71.53;101032.45;51617;1309;1016088;-79
2022/10/18 10:48:47;;;;;;;13.20;4.20;;;;;;;19.94;71.16;101034.23;51729;1309;1016073;-80
2022/10/18 10:51:30;;;;;;;18.60;4.80;;;;;;;19.98;70.67;101040.19;51630;1284;1016589;-80
2022/10/18 10:54:04;;;;;;;15.20;4.90;;;;;;;20.03;70.55;101042.06;51667;1308;1016453;-80
2022/10/18 10:56:51;;;;;;;15.40;5.10;;;;;;;20.08;70.36;101040.94;51848;1309;1016244;-80
2022/10/18 10:59:26;;;;;;;16.90;5.50;;;;;;;20.15;70.21;101033.27;51712;1309;1015886;-80
2022/10/18 11:05:25;;;;;;;15.50;5.60;;;;;;;20.28;69.39;101027.23;100109;1341;545011;-69
2022/10/18 11:08:02;;;;;;;19.10;5.80;;;;;;;20.30;68.94;101023.19;102851;1291;22778;-69
2022/10/18 11:10:43;;;;;;;17.60;5.50;;;;;;;20.31;68.76;101018.23;102719;1307;25454;-69
2022/10/18 11:13:24;;;;;;;15.10;5.20;;;;;;;20.27;67.99;101014.91;102718;1316;22477;-69
2022/10/18 11:16:04;;;;;;;15.40;5.70;;;;;;;20.20;67.89;101016.44;103395;1313;22609;-69
2022/10/18 11:18:37;;;;;;;12.90;5.80;;;;;;;20.10;68.01;101012.12;103220;1288;189373;-69
2022/10/18 11:21:11;;;;;;;14.40;5.50;;;;;;;20.04;68.22;101007.27;103492;1289;22775;-69
2022/10/18 11:23:44;;;;;;;20.50;5.80;;;;;;;20.00;67.77;101009.36;103472;1278;22491;-69
2022/10/18 11:26:37;;;;;;;16.80;6.00;;;;;;;19.94;67.71;101005.44;103400;1286;22474;-69
2022/10/18 11:29:26;;;;;;;17.20;6.20;;;;;;;19.92;67.58;101004.22;103262;1289;22893;-69
2022/10/18 11:32:11;;;;;;;17.10;5.70;;;;;;;19.91;67.60;100999.58;103307;1289;23372;-69
2022/10/18 11:35:04;;;;;;;14.50;4.60;;;;;;;19.93;68.10;100991.54;103542;1286;22504;-69
2022/10/18 11:37:54;;;;;;;17.60;6.00;;;;;;;19.94;67.68;100992.41;103501;1305;22473;-69
2022/10/18 11:40:50;;;;;;;21.60;7.00;;;;;;;19.93;67.66;100988.14;103291;1281;22678;-69
2022/10/18 11:43:27;;;;;;;15.20;5.00;;;;;;;19.92;67.55;100981.50;103312;1285;22475;-69
2022/10/18 11:46:07;;;;;;;15.70;6.20;;;;;;;19.90;67.69;100972.70;103261;1310;22491;-69